Liberty Township, OH

12:04 AM EST on December 28, 2014 (GMT -0500)
Joe's Backyard - Liberty Twp | Change Station
CLOSE
Current Station
Personal Weather Station
Location: Liberty Township, OH
Elevation: 804 ft
Nearby Weather Stations

Elev 804 ft 39.39 °N, 84.40 °W | Updated 4 seconds ago

Rain
Rain
46.9 °F
Feels Like 42 °F
N
11.5
Wind Variable Wind from WSW
Gusts 11.5 mph

Today
High -- | Low -- °F
--% Chance of Precip.
Yesterday
High -- | Low -- °F
Precip. -- in
7:56 AM 5:21 PM
Waxing Crescent, 44% visible
Pressure 30.08 in
Visibility 6.0 miles
Clouds Mostly Cloudy 600 ft
Overcast 1100 ft
Windchill 42 °F
Dew Point 46 °F
Humidity 98%
Rainfall 0.00 in
Snow Depth Not available.
UV 0.0 out of 12
Pollen .10 out of 12
Air Quality Not available.
Flu Activity Not available.
SPECI KHAO 280500Z AUTO 30011KT 6SM -RA BR BKN006 OVC011 08/07 A3008 RMK AO2 CIG 003V006 P0000 T00780067

More Conditions Fewer Conditions

Pressure 30.08 in
Visibility 6.0 miles
Clouds Mostly Cloudy 600 ft
Overcast 1100 ft
Windchill 42 °F
Dew Point 46 °F
Humidity 98%
Rainfall 0.00 in
Snow Depth Not available.
UV 0.0 out of 12
Pollen .10 out of 12
Air Quality Not available.
Flu Activity Not available.
SPECI KHAO 280500Z AUTO 30011KT 6SM -RA BR BKN006 OVC011 08/07 A3008 RMK AO2 CIG 003V006 P0000 T00780067

More Conditions Fewer Conditions

10-Day Weather Forecast

Almanac

Astronomy

Dec. 28, 2014 Rise Set
Actual Time
Civil Twilight
Nautical Twilight
Astronomical Twilight
Moon
Length of Visible Light
Length of Day
Tomorrow will be .
, % of the Moon is Illuminated

Today's Extremes

State Highs State Lows

Community

WunderPhotos

Upload Photos

1,781,205 photos uploaded!

WunderBlogs® & News

Nearby

Air Quality

  Air Quality AQ Index Pollutant
Not available.

Snow Depth

Station Depth Elevation

Earthquake Activity

City Distance Mag. Time & Date
Minimum magnitude displayed is 2.5.

Coastal Water Temperatures

Place Temperature

Nearby Weather Stations